Time;durP1;ratioP1;P1;durP2;ratioP2;P2;SDS_P1;SDS_P2;PMS_P1;PMS_P2;Temp;Humidity;BMP_temperature;BMP_pressure;BME280_temperature;BME280_humidity;BME280_pressure;Samples;Min_cycle;Max_cycle;Signal;HPM_P1;HPM_P2
2021/10/24 00:01:51;;;;;;;5.13;3.60;;;5.40;96.60;;;;;;4186797;28;20314;-66
2021/10/24 00:03:53;;;;;;;6.13;2.87;;;5.30;96.80;;;;;;4187914;28;20849;-65
2021/10/24 00:05:55;;;;;;;8.40;2.97;;;5.30;96.90;;;;;;4188302;28;20297;-64
2021/10/24 00:07:56;;;;;;;8.80;3.00;;;5.30;97.00;;;;;;4189137;28;20269;-65
2021/10/24 00:09:57;;;;;;;11.47;3.37;;;5.30;97.00;;;;;;4188960;28;20291;-66
2021/10/24 00:11:58;;;;;;;6.30;2.83;;;5.20;97.20;;;;;;4188982;28;21115;-65
2021/10/24 00:14:00;;;;;;;8.47;3.20;;;5.20;97.40;;;;;;4188718;28;20326;-65
2021/10/24 00:16:01;;;;;;;9.33;3.30;;;5.10;97.30;;;;;;4188546;28;20335;-65
2021/10/24 00:18:02;;;;;;;6.77;2.73;;;5.10;97.40;;;;;;4188915;28;20257;-65
2021/10/24 00:20:05;;;;;;;7.13;2.77;;;5.10;97.50;;;;;;4188599;28;20355;-65
2021/10/24 00:22:06;;;;;;;7.03;2.80;;;5.10;97.50;;;;;;4188462;28;20974;-65
2021/10/24 00:24:07;;;;;;;6.13;3.03;;;5.10;97.60;;;;;;4188746;28;20342;-65
2021/10/24 00:26:08;;;;;;;7.77;2.40;;;5.00;97.70;;;;;;4189097;28;20273;-67
2021/10/24 00:28:09;;;;;;;8.50;2.63;;;5.00;98.00;;;;;;4188033;28;20331;-66
2021/10/24 00:30:10;;;;;;;7.63;2.53;;;5.00;98.10;;;;;;4188517;28;20664;-66
2021/10/24 00:32:12;;;;;;;8.33;2.40;;;4.90;98.20;;;;;;4188325;28;20330;-65
2021/10/24 00:34:13;;;;;;;7.50;1.70;;;4.80;98.30;;;;;;4188868;28;20277;-66
2021/10/24 00:36:14;;;;;;;8.87;2.80;;;4.80;98.50;;;;;;4188759;28;20327;-64
2021/10/24 00:38:15;;;;;;;3.60;2.43;;;4.70;98.50;;;;;;4188302;28;20739;-66
2021/10/24 00:40:16;;;;;;;4.07;1.93;;;4.70;98.70;;;;;;4188005;28;20433;-66
2021/10/24 00:42:18;;;;;;;4.97;2.13;;;4.60;98.90;;;;;;4188520;28;20326;-64
2021/10/24 00:44:29;;;;;;;4.63;2.60;;;4.60;98.90;;;;;;4188097;28;20289;-65
2021/10/24 00:46:30;;;;;;;5.65;2.22;;;4.50;99.20;;;;;;4188610;28;20277;-65
2021/10/24 00:48:31;;;;;;;4.53;2.30;;;4.50;99.20;;;;;;4188549;28;20523;-65
2021/10/24 00:50:33;;;;;;;7.97;2.23;;;4.50;99.30;;;;;;4189023;28;20285;-66
2021/10/24 00:52:34;;;;;;;5.63;2.30;;;4.40;99.40;;;;;;4191550;28;20269;-65
2021/10/24 00:54:37;;;;;;;6.77;2.83;;;4.40;99.70;;;;;;4190796;28;20273;-65
2021/10/24 00:56:40;;;;;;;8.53;2.43;;;4.40;99.80;;;;;;4191428;28;20327;-66
2021/10/24 00:58:42;;;;;;;5.07;2.17;;;4.40;99.50;;;;;;4190772;28;20316;-65
2021/10/24 01:00:43;;;;;;;6.53;2.40;;;4.40;99.60;;;;;;4191651;28;20385;-66
2021/10/24 01:02:45;;;;;;;6.90;2.40;;;4.40;99.80;;;;;;4191360;28;20322;-66
2021/10/24 01:04:46;;;;;;;7.43;3.17;;;4.40;99.90;;;;;;4189541;28;20339;-65
2021/10/24 01:06:51;;;;;;;7.50;3.70;;;4.40;99.90;;;;;;4190661;28;20273;-65
2021/10/24 01:08:54;;;;;;;10.40;3.40;;;4.40;99.90;;;;;;4191448;28;20330;-66
2021/10/24 01:10:55;;;;;;;6.60;4.10;;;4.40;99.90;;;;;;4190812;28;20309;-65
2021/10/24 01:12:56;;;;;;;9.10;3.47;;;4.40;99.90;;;;;;4191068;28;20362;-65
2021/10/24 01:14:58;;;;;;;10.00;3.33;;;4.40;99.90;;;;;;4191160;28;20342;-65
2021/10/24 01:16:59;;;;;;;5.73;3.03;;;4.40;99.90;;;;;;4191479;28;20807;-65
2021/10/24 01:19:04;;;;;;;7.90;3.00;;;4.40;99.90;;;;;;4190058;28;20273;-65
2021/10/24 01:21:06;;;;;;;6.53;2.73;;;4.40;99.90;;;;;;4191081;28;20293;-64
2021/10/24 01:23:09;;;;;;;6.53;2.63;;;4.40;99.90;;;;;;4191454;28;20680;-66
2021/10/24 01:25:10;;;;;;;7.47;3.00;;;4.40;99.90;;;;;;4190978;28;20737;-65
2021/10/24 01:27:11;;;;;;;6.33;2.70;;;4.40;99.90;;;;;;4190370;28;20834;-66
2021/10/24 01:29:12;;;;;;;6.87;2.17;;;4.40;99.90;;;;;;4191180;28;20281;-65
2021/10/24 01:31:14;;;;;;;4.57;2.00;;;4.40;99.90;;;;;;4190983;28;20270;-66
2021/10/24 01:33:15;;;;;;;8.90;2.37;;;4.40;99.90;;;;;;4191104;28;20342;-66
2021/10/24 01:35:16;;;;;;;4.53;2.13;;;4.50;99.90;;;;;;4190809;28;20271;-66
2021/10/24 01:37:17;;;;;;;5.93;1.90;;;4.50;99.90;;;;;;4188900;28;20406;-66
2021/10/24 01:39:18;;;;;;;5.60;2.10;;;4.50;99.90;;;;;;4191458;28;20344;-65
2021/10/24 01:41:24;;;;;;;5.53;2.23;;;4.60;99.90;;;;;;4190312;28;20305;-65
2021/10/24 01:43:26;;;;;;;4.90;2.30;;;4.60;99.90;;;;;;4190737;28;20335;-65
2021/10/24 01:45:28;;;;;;;6.77;2.03;;;4.60;99.90;;;;;;4190535;28;20814;-65
2021/10/24 01:47:29;;;;;;;7.13;2.37;;;4.60;99.90;;;;;;4190339;28;20326;-66
2021/10/24 01:49:30;;;;;;;5.07;2.03;;;4.60;99.90;;;;;;4190878;28;20277;-65
2021/10/24 01:51:32;;;;;;;4.43;2.23;;;4.60;99.90;;;;;;4190804;28;20261;-65
2021/10/24 01:53:36;;;;;;;4.03;2.13;;;4.60;99.90;;;;;;4190963;28;20315;-65
2021/10/24 01:55:38;;;;;;;5.03;2.57;;;4.60;99.90;;;;;;4190845;28;20335;-65
2021/10/24 01:57:42;;;;;;;6.77;2.53;;;4.50;99.90;;;;;;4190226;28;20277;-66
2021/10/24 01:59:43;;;;;;;7.33;2.00;;;4.50;99.90;;;;;;4190134;28;20741;-64
2021/10/24 02:01:44;;;;;;;5.87;2.30;;;4.40;99.90;;;;;;4189992;28;20808;-66
2021/10/24 02:03:45;;;;;;;5.83;2.57;;;4.30;99.90;;;;;;4189870;28;20257;-65
2021/10/24 02:05:46;;;;;;;8.90;2.60;;;4.40;99.90;;;;;;4190500;28;20269;-66
2021/10/24 02:07:47;;;;;;;5.90;2.73;;;4.30;99.90;;;;;;4190590;28;20271;-65
2021/10/24 02:09:49;;;;;;;5.07;2.10;;;4.30;99.90;;;;;;4190409;28;20319;-65
2021/10/24 02:11:50;;;;;;;5.63;2.63;;;4.30;99.90;;;;;;4189951;28;21012;-65
2021/10/24 02:13:51;;;;;;;10.60;2.50;;;4.30;99.90;;;;;;4190476;28;20269;-65
2021/10/24 02:15:52;;;;;;;4.63;2.23;;;4.30;99.90;;;;;;4190572;28;20266;-65
2021/10/24 02:17:53;;;;;;;4.37;2.00;;;4.30;99.90;;;;;;4190422;28;20763;-65
2021/10/24 02:19:54;;;;;;;5.57;2.63;;;4.30;99.90;;;;;;4189600;28;20281;-66
2021/10/24 02:21:55;;;;;;;4.97;2.67;;;4.30;99.90;;;;;;4190789;28;20280;-66
2021/10/24 02:23:56;;;;;;;9.80;3.33;;;4.30;99.90;;;;;;4190458;28;20319;-66
2021/10/24 02:25:57;;;;;;;9.63;2.80;;;4.30;99.90;;;;;;4190587;28;20346;-65
2021/10/24 02:27:59;;;;;;;4.50;2.00;;;4.20;99.90;;;;;;4190213;28;20273;-66
2021/10/24 02:30:01;;;;;;;8.90;2.77;;;4.30;99.90;;;;;;4191081;28;20283;-66
2021/10/24 02:32:03;;;;;;;3.43;2.10;;;4.20;99.90;;;;;;4190727;28;20331;-65
2021/10/24 02:34:04;;;;;;;6.17;2.10;;;4.30;99.90;;;;;;4190612;28;20269;-65
2021/10/24 02:36:05;;;;;;;4.57;1.97;;;4.30;99.90;;;;;;4191401;28;20265;-65
2021/10/24 02:38:07;;;;;;;3.07;1.57;;;4.30;99.90;;;;;;4189864;28;20281;-66
2021/10/24 02:40:09;;;;;;;3.97;1.73;;;4.30;99.90;;;;;;4189899;28;20273;-66
2021/10/24 02:42:10;;;;;;;6.17;2.10;;;4.30;99.90;;;;;;4189188;28;20282;-64
2021/10/24 02:44:13;;;;;;;5.57;2.17;;;4.30;99.90;;;;;;4188871;28;20281;-65
2021/10/24 02:46:14;;;;;;;4.30;1.63;;;4.30;99.90;;;;;;4188638;28;20644;-64
2021/10/24 02:48:15;;;;;;;3.33;1.67;;;4.30;99.90;;;;;;4189599;28;21148;-66
2021/10/24 02:50:17;;;;;;;5.93;1.90;;;4.30;99.90;;;;;;4191103;28;20342;-66
2021/10/24 02:52:18;;;;;;;2.73;1.67;;;4.40;99.90;;;;;;4189922;28;20315;-66
2021/10/24 02:54:20;;;;;;;6.33;2.80;;;4.40;99.90;;;;;;4190425;28;20737;-66
2021/10/24 02:56:21;;;;;;;5.60;2.60;;;4.40;99.90;;;;;;4189519;28;21189;-65
2021/10/24 02:58:22;;;;;;;6.70;2.67;;;4.40;99.90;;;;;;4189563;28;20311;-65
2021/10/24 03:00:23;;;;;;;4.33;2.13;;;4.40;99.90;;;;;;4189693;28;20364;-65
2021/10/24 03:02:24;;;;;;;6.20;2.97;;;4.40;99.90;;;;;;4189832;28;20257;-65
2021/10/24 03:04:27;;;;;;;6.30;2.40;;;4.30;99.90;;;;;;4189030;28;20285;-65
2021/10/24 03:06:28;;;;;;;7.03;2.70;;;4.20;99.90;;;;;;4190183;28;20319;-65
2021/10/24 03:08:29;;;;;;;4.20;2.17;;;4.20;99.90;;;;;;4189261;28;20413;-65
2021/10/24 03:10:31;;;;;;;7.63;2.30;;;4.10;99.90;;;;;;4189642;28;20323;-65
2021/10/24 03:12:32;;;;;;;12.63;2.50;;;4.10;99.90;;;;;;4189229;28;20277;-66
2021/10/24 03:14:34;;;;;;;9.60;3.77;;;4.00;99.90;;;;;;4188986;28;20266;-65
2021/10/24 03:16:35;;;;;;;6.80;2.33;;;4.00;99.90;;;;;;4189003;28;20274;-64
2021/10/24 03:18:36;;;;;;;5.57;2.37;;;3.90;99.90;;;;;;4189514;28;20261;-65
2021/10/24 03:20:37;;;;;;;9.87;2.33;;;4.00;99.90;;;;;;4189150;28;20285;-65
2021/10/24 03:22:38;;;;;;;4.67;1.90;;;3.90;99.90;;;;;;4189414;28;20806;-66
2021/10/24 03:24:39;;;;;;;7.60;2.93;;;3.90;99.90;;;;;;4189480;28;20281;-65
2021/10/24 03:26:40;;;;;;;7.20;2.40;;;3.90;99.90;;;;;;4189385;28;20270;-65
2021/10/24 03:28:41;;;;;;;4.43;2.50;;;3.90;99.90;;;;;;4189148;28;20732;-66
2021/10/24 03:30:43;;;;;;;5.43;2.20;;;3.80;99.90;;;;;;4189199;28;20273;-65
2021/10/24 03:32:44;;;;;;;4.67;2.27;;;3.80;99.90;;;;;;4189527;28;20778;-67
2021/10/24 03:34:45;;;;;;;3.23;2.20;;;3.80;99.90;;;;;;4189202;28;21109;-65
2021/10/24 03:36:47;;;;;;;4.00;2.20;;;3.80;99.90;;;;;;4189444;28;20269;-65
2021/10/24 03:38:49;;;;;;;4.47;1.60;;;3.70;99.90;;;;;;4188726;28;20273;-65
2021/10/24 03:40:50;;;;;;;7.00;1.73;;;3.70;99.90;;;;;;4188576;28;20354;-67
2021/10/24 03:42:51;;;;;;;4.70;2.20;;;3.70;99.90;;;;;;4188535;28;20269;-68
2021/10/24 03:44:53;;;;;;;2.90;1.90;;;3.70;99.90;;;;;;4188887;28;20265;-65
2021/10/24 03:46:54;;;;;;;4.80;1.67;;;3.70;99.90;;;;;;4189174;28;20265;-65
2021/10/24 03:48:56;;;;;;;4.17;1.50;;;3.70;99.90;;;;;;4187529;28;20335;-66
2021/10/24 03:50:57;;;;;;;4.40;1.60;;;3.70;99.90;;;;;;4188642;28;20346;-65
2021/10/24 03:52:58;;;;;;;5.73;2.63;;;3.70;99.90;;;;;;4189060;28;20323;-66
2021/10/24 03:54:59;;;;;;;3.90;1.60;;;3.70;99.90;;;;;;4188917;28;20318;-66
2021/10/24 03:57:01;;;;;;;3.50;1.50;;;3.80;99.90;;;;;;4188411;28;20268;-65
2021/10/24 03:59:02;;;;;;;4.23;2.20;;;3.70;99.90;;;;;;4188832;28;20738;-65
2021/10/24 04:01:03;;;;;;;4.60;2.07;;;3.70;99.90;;;;;;4188162;28;20354;-65
2021/10/24 04:03:05;;;;;;;3.90;1.47;;;3.70;99.90;;;;;;4188261;28;20852;-65
2021/10/24 04:05:07;;;;;;;7.33;2.17;;;3.70;99.90;;;;;;4189204;28;20347;-67
2021/10/24 04:07:08;;;;;;;4.97;1.80;;;3.70;99.90;;;;;;4187061;28;20335;-66
2021/10/24 04:09:10;;;;;;;2.40;1.90;;;3.70;99.90;;;;;;4188914;28;20320;-66
2021/10/24 04:11:11;;;;;;;8.07;1.83;;;3.70;99.90;;;;;;4189302;28;20273;-66
2021/10/24 04:13:13;;;;;;;4.10;2.27;;;3.70;99.90;;;;;;4186592;28;20273;-65
2021/10/24 04:15:14;;;;;;;5.53;1.63;;;3.70;99.90;;;;;;4189118;28;20331;-66
2021/10/24 04:17:15;;;;;;;5.23;2.13;;;3.70;99.90;;;;;;4188363;28;20319;-68
2021/10/24 04:19:17;;;;;;;5.50;2.03;;;3.70;99.90;;;;;;4189130;28;20648;-65
2021/10/24 04:21:18;;;;;;;5.87;1.97;;;3.70;99.90;;;;;;4188406;28;21242;-65
2021/10/24 04:23:19;;;;;;;6.60;2.30;;;3.70;99.90;;;;;;4187403;28;20335;-66
2021/10/24 04:25:20;;;;;;;3.57;1.90;;;3.60;99.90;;;;;;4189670;28;20367;-66
2021/10/24 04:27:22;;;;;;;6.07;1.97;;;3.60;99.90;;;;;;4191859;28;20323;-65
2021/10/24 04:29:23;;;;;;;3.97;1.90;;;3.60;99.90;;;;;;4192905;28;20292;-66
2021/10/24 04:31:24;;;;;;;5.10;2.57;;;3.50;99.90;;;;;;4191563;28;20277;-65
2021/10/24 04:33:25;;;;;;;9.13;3.40;;;3.50;99.90;;;;;;4192243;28;20303;-66
2021/10/24 04:35:26;;;;;;;3.70;1.80;;;3.50;99.90;;;;;;4191397;28;20292;-66
2021/10/24 04:37:27;;;;;;;7.63;2.23;;;3.50;99.90;;;;;;4191513;28;20281;-67
2021/10/24 04:39:28;;;;;;;4.97;2.10;;;3.50;99.90;;;;;;4192259;28;20258;-66
2021/10/24 04:41:30;;;;;;;5.83;2.17;;;3.50;99.90;;;;;;4192029;28;20350;-66
2021/10/24 04:43:31;;;;;;;5.53;2.10;;;3.50;99.90;;;;;;4191437;28;20273;-67
2021/10/24 04:45:34;;;;;;;4.60;2.17;;;3.40;99.90;;;;;;4191335;28;20331;-66
2021/10/24 04:47:36;;;;;;;8.07;2.13;;;3.40;99.90;;;;;;4191716;28;21263;-66
2021/10/24 04:49:37;;;;;;;4.57;2.13;;;3.30;99.90;;;;;;4191445;28;20315;-66
2021/10/24 04:51:38;;;;;;;8.00;1.87;;;3.30;99.90;;;;;;4191373;28;20281;-66
2021/10/24 04:53:39;;;;;;;6.57;2.20;;;3.30;99.90;;;;;;4192230;28;20314;-66
2021/10/24 04:55:43;;;;;;;5.67;2.03;;;3.20;99.90;;;;;;4191396;28;20814;-66
2021/10/24 04:57:44;;;;;;;4.17;2.00;;;3.20;99.90;;;;;;4191843;28;20261;-68
2021/10/24 04:59:45;;;;;;;5.43;2.67;;;3.20;99.90;;;;;;4191244;28;20343;-65
2021/10/24 05:01:47;;;;;;;4.90;2.33;;;3.10;99.90;;;;;;4191564;28;20773;-66
2021/10/24 05:03:48;;;;;;;4.30;2.37;;;3.10;99.90;;;;;;4191511;28;20320;-65
2021/10/24 05:05:49;;;;;;;5.83;2.17;;;3.20;99.90;;;;;;4191493;28;20273;-65
2021/10/24 05:07:51;;;;;;;4.87;1.73;;;3.40;99.90;;;;;;4191094;28;20273;-66
2021/10/24 05:09:52;;;;;;;5.30;2.30;;;3.60;99.90;;;;;;4191684;28;20354;-66
2021/10/24 05:11:53;;;;;;;3.53;2.00;;;3.80;99.90;;;;;;4191698;28;20262;-68
2021/10/24 05:13:54;;;;;;;4.50;1.90;;;4.00;99.90;;;;;;4190931;28;20336;-67
2021/10/24 05:15:55;;;;;;;5.00;2.20;;;4.20;99.90;;;;;;4191132;28;20295;-67
2021/10/24 05:17:56;;;;;;;3.50;2.10;;;4.30;99.90;;;;;;4191136;28;20319;-67
2021/10/24 05:19:57;;;;;;;6.87;2.47;;;4.50;99.90;;;;;;4190955;28;20273;-66
2021/10/24 05:21:58;;;;;;;5.33;2.70;;;4.70;99.90;;;;;;4190861;28;20765;-66
2021/10/24 05:23:59;;;;;;;4.07;2.03;;;4.90;99.90;;;;;;4191713;28;20273;-66
2021/10/24 05:26:04;;;;;;;9.73;2.60;;;5.10;99.90;;;;;;4190545;28;20273;-66
2021/10/24 05:28:05;;;;;;;6.57;2.50;;;5.40;99.90;;;;;;4190512;28;20842;-67
2021/10/24 05:30:07;;;;;;;4.03;2.50;;;5.70;99.90;;;;;;4190964;28;21009;-66
2021/10/24 05:32:08;;;;;;;4.80;2.30;;;5.90;99.90;;;;;;4189131;28;20277;-66
2021/10/24 05:34:09;;;;;;;7.13;3.07;;;6.10;99.90;;;;;;4190426;28;20327;-65
2021/10/24 05:36:10;;;;;;;4.53;2.40;;;6.30;99.90;;;;;;4190391;28;20434;-67
2021/10/24 05:38:11;;;;;;;3.33;2.27;;;6.50;99.90;;;;;;4189885;28;20691;-66
2021/10/24 05:40:13;;;;;;;3.00;2.00;;;6.60;99.90;;;;;;4190546;28;20036;-65
2021/10/24 05:42:14;;;;;;;5.90;2.17;;;6.80;99.90;;;;;;4190269;28;20060;-64
2021/10/24 05:44:19;;;;;;;5.50;2.20;;;7.00;99.90;;;;;;4190489;28;20029;-65
2021/10/24 05:46:20;;;;;;;5.50;2.47;;;7.20;99.90;;;;;;4190803;28;20024;-65
2021/10/24 05:48:21;;;;;;;6.10;2.17;;;7.30;99.90;;;;;;4190707;28;20036;-66
2021/10/24 05:50:22;;;;;;;4.37;2.43;;;7.60;99.90;;;;;;4189843;28;20036;-65
2021/10/24 05:52:24;;;;;;;5.60;2.70;;;7.80;99.90;;;;;;4190733;28;20105;-66
2021/10/24 05:54:25;;;;;;;5.30;2.40;;;8.00;99.90;;;;;;4189342;28;20078;-66
2021/10/24 05:56:27;;;;;;;7.90;2.60;;;8.00;99.70;;;;;;4189822;28;20062;-65
2021/10/24 05:58:28;;;;;;;4.47;2.40;;;8.00;99.50;;;;;;4189991;28;20024;-65
2021/10/24 06:00:32;;;;;;;4.97;1.70;;;8.10;99.60;;;;;;4190311;28;20028;-65
2021/10/24 06:02:33;;;;;;;6.93;2.37;;;8.20;99.80;;;;;;4189950;28;20427;-67
2021/10/24 06:04:34;;;;;;;4.07;2.40;;;8.20;98.90;;;;;;4188644;28;20109;-66
2021/10/24 06:06:35;;;;;;;3.83;2.07;;;8.20;98.80;;;;;;4190130;28;20028;-67
2021/10/24 06:08:37;;;;;;;7.73;2.83;;;8.20;99.10;;;;;;4190195;28;20915;-69
2021/10/24 06:10:39;;;;;;;6.03;2.50;;;8.20;98.90;;;;;;4197725;28;20143;-67
2021/10/24 06:12:46;;;;;;;5.40;2.63;;;8.50;99.10;;;;;;4206157;28;20113;-68
2021/10/24 06:14:47;;;;;;;4.83;2.70;;;9.00;99.10;;;;;;4206543;28;20085;-66
2021/10/24 06:16:48;;;;;;;9.83;3.03;;;9.20;98.20;;;;;;4206371;28;20028;-67
2021/10/24 06:18:49;;;;;;;6.00;3.30;;;9.40;97.70;;;;;;4206151;28;20028;-68
2021/10/24 06:20:50;;;;;;;7.30;3.87;;;9.50;97.20;;;;;;4193221;28;20113;-68
2021/10/24 06:22:52;;;;;;;4.17;2.67;;;9.50;96.90;;;;;;4188859;28;20082;-68
2021/10/24 06:24:54;;;;;;;5.57;3.27;;;9.70;96.60;;;;;;4189786;28;20044;-66
2021/10/24 06:26:55;;;;;;;5.20;3.10;;;9.60;96.00;;;;;;4189163;28;20455;-67
2021/10/24 06:28:56;;;;;;;5.33;2.70;;;9.60;96.00;;;;;;4189165;28;20067;-66
2021/10/24 06:30:57;;;;;;;5.87;2.80;;;9.50;95.60;;;;;;4188062;28;20117;-66
2021/10/24 06:32:59;;;;;;;8.00;3.27;;;9.40;95.40;;;;;;4187130;28;20040;-67
2021/10/24 06:35:04;;;;;;;7.33;3.07;;;9.10;95.50;;;;;;4189449;28;20021;-67
2021/10/24 06:37:05;;;;;;;10.77;3.90;;;9.20;95.50;;;;;;4189480;28;20016;-66
2021/10/24 06:39:06;;;;;;;11.73;3.37;;;9.40;95.50;;;;;;4189519;28;20106;-65
2021/10/24 06:41:07;;;;;;;9.00;3.70;;;9.70;95.00;;;;;;4188926;28;20106;-66
2021/10/24 06:43:08;;;;;;;6.57;3.70;;;9.60;94.70;;;;;;4188767;28;20040;-66
2021/10/24 06:45:11;;;;;;;6.33;3.30;;;9.30;94.90;;;;;;4189490;28;20697;-64
2021/10/24 06:47:12;;;;;;;5.40;3.30;;;9.40;94.80;;;;;;4188610;28;20055;-66
2021/10/24 06:49:14;;;;;;;7.10;3.37;;;9.60;94.50;;;;;;4189034;28;20037;-66
2021/10/24 06:51:15;;;;;;;20.57;10.30;;;9.60;94.20;;;;;;4188830;28;20830;-60
2021/10/24 06:53:16;;;;;;;16.60;7.90;;;9.50;94.40;;;;;;4189027;28;20044;-64
2021/10/24 06:55:18;;;;;;;7.43;3.10;;;9.70;94.40;;;;;;4189678;28;20078;-62
2021/10/24 06:57:21;;;;;;;6.97;2.97;;;9.90;94.20;;;;;;4188480;28;20093;-64
2021/10/24 06:59:22;;;;;;;9.73;2.90;;;10.20;94.00;;;;;;4190193;28;20082;-64
2021/10/24 07:01:23;;;;;;;8.13;2.90;;;10.60;93.70;;;;;;4188502;28;20052;-67
2021/10/24 07:03:25;;;;;;;9.70;3.07;;;10.50;93.20;;;;;;4189170;28;20086;-65
2021/10/24 07:05:26;;;;;;;4.90;2.40;;;10.20;93.30;;;;;;4188875;28;20037;-64
2021/10/24 07:07:27;;;;;;;8.37;2.50;;;10.20;93.40;;;;;;4188976;28;20032;-62
2021/10/24 07:09:28;;;;;;;6.00;3.10;;;10.10;93.20;;;;;;4188443;28;20472;-64
2021/10/24 07:11:29;;;;;;;5.40;2.37;;;10.10;93.30;;;;;;4188925;28;20044;-65
2021/10/24 07:13:31;;;;;;;6.87;2.43;;;10.20;93.20;;;;;;4188820;28;20036;-65
2021/10/24 07:15:33;;;;;;;8.20;2.63;;;10.40;93.10;;;;;;4188732;28;20767;-64
2021/10/24 07:17:35;;;;;;;6.53;2.50;;;10.50;93.00;;;;;;4188605;28;20033;-67
2021/10/24 07:19:36;;;;;;;4.23;2.17;;;10.50;92.80;;;;;;4188504;28;20169;-65
2021/10/24 07:21:37;;;;;;;5.77;2.50;;;10.40;92.90;;;;;;4189179;28;20044;-66
2021/10/24 07:23:38;;;;;;;7.17;2.77;;;10.40;92.80;;;;;;4188452;28;20601;-64
2021/10/24 07:25:39;;;;;;;4.43;2.10;;;10.30;92.70;;;;;;4189003;28;20032;-64
2021/10/24 07:27:42;;;;;;;6.67;2.77;;;10.20;92.70;;;;;;4187794;28;20045;-63
2021/10/24 07:29:43;;;;;;;8.33;3.07;;;10.00;92.90;;;;;;4189033;28;20052;-64
2021/10/24 07:31:44;;;;;;;3.23;1.70;;;9.70;93.10;;;;;;4188132;28;20396;-63
2021/10/24 07:33:45;;;;;;;19.73;3.43;;;9.90;93.00;;;;;;4188443;28;20082;-62
2021/10/24 07:35:46;;;;;;;5.63;2.47;;;9.90;92.80;;;;;;4187789;28;20067;-63
2021/10/24 07:37:48;;;;;;;3.40;2.00;;;10.00;92.80;;;;;;4188327;28;20020;-63
2021/10/24 07:39:49;;;;;;;4.90;2.10;;;10.00;92.70;;;;;;4188392;28;20032;-64
2021/10/24 07:41:51;;;;;;;3.10;1.67;;;10.10;92.70;;;;;;4188542;28;20503;-63
2021/10/24 07:43:53;;;;;;;8.03;2.57;;;10.10;92.60;;;;;;4188265;28;20048;-64
2021/10/24 07:45:54;;;;;;;7.23;2.13;;;10.30;92.50;;;;;;4188033;28;20895;-65
2021/10/24 07:47:56;;;;;;;4.63;1.93;;;10.30;92.40;;;;;;4188512;28;20028;-65
2021/10/24 07:50:03;;;;;;;6.00;2.13;;;10.50;92.30;;;;;;4187707;28;20032;-65
2021/10/24 07:52:04;;;;;;;7.90;2.43;;;10.60;92.40;;;;;;4188675;28;20086;-66
2021/10/24 07:54:05;;;;;;;7.63;2.13;;;10.70;92.30;;;;;;4188626;28;20028;-65
2021/10/24 07:56:06;;;;;;;5.97;1.80;;;10.80;92.20;;;;;;4187916;28;20040;-66
2021/10/24 07:58:07;;;;;;;3.37;1.87;;;11.00;91.80;;;;;;4188159;28;20025;-65
2021/10/24 08:00:09;;;;;;;4.97;1.40;;;11.20;91.70;;;;;;4187535;28;20095;-64
2021/10/24 08:02:11;;;;;;;2.57;1.13;;;11.20;91.50;;;;;;4187720;28;20032;-64
2021/10/24 08:04:12;;;;;;;3.03;1.40;;;11.40;91.40;;;;;;4187947;28;20044;-66
2021/10/24 08:06:16;;;;;;;4.23;1.67;;;11.40;91.30;;;;;;4187768;28;20093;-65
2021/10/24 08:08:17;;;;;;;4.67;1.20;;;11.60;91.30;;;;;;4187708;28;20160;-64
2021/10/24 08:10:18;;;;;;;2.67;1.30;;;11.80;91.10;;;;;;4188297;28;20025;-65
2021/10/24 08:12:19;;;;;;;3.60;1.63;;;11.90;90.80;;;;;;4188635;28;20037;-63
2021/10/24 08:14:21;;;;;;;4.97;1.43;;;11.90;90.70;;;;;;4187533;28;20037;-64
2021/10/24 08:16:22;;;;;;;6.40;1.57;;;11.90;90.60;;;;;;4187980;28;20037;-61
2021/10/24 08:18:23;;;;;;;8.07;1.90;;;11.90;90.80;;;;;;4188216;28;20174;-65
2021/10/24 08:20:24;;;;;;;5.80;1.80;;;11.70;90.70;;;;;;4187368;28;20492;-65
2021/10/24 08:22:26;;;;;;;7.47;2.00;;;11.30;91.30;;;;;;4187388;28;20052;-61
2021/10/24 08:24:27;;;;;;;4.83;1.77;;;11.10;91.60;;;;;;4188091;28;20082;-65
2021/10/24 08:26:30;;;;;;;7.93;1.90;;;10.90;92.00;;;;;;4187800;28;21060;-65
2021/10/24 08:28:32;;;;;;;7.80;2.07;;;11.20;92.00;;;;;;4187349;28;20806;-65
2021/10/24 08:30:33;;;;;;;6.07;2.70;;;11.50;91.90;;;;;;4187450;28;20476;-67
2021/10/24 08:32:36;;;;;;;7.37;2.10;;;11.60;91.70;;;;;;4187564;28;20059;-68
2021/10/24 08:34:41;;;;;;;5.73;2.17;;;11.60;91.90;;;;;;4187569;28;20098;-62
2021/10/24 08:36:43;;;;;;;4.80;2.00;;;11.70;91.50;;;;;;4187715;28;20040;-65
2021/10/24 08:38:44;;;;;;;5.17;2.30;;;11.40;91.50;;;;;;4187960;28;20090;-64
2021/10/24 08:40:47;;;;;;;5.60;2.50;;;11.20;91.50;;;;;;4186630;28;20043;-62
2021/10/24 08:42:53;;;;;;;6.73;2.10;;;10.90;91.90;;;;;;4186960;28;20048;-65
2021/10/24 08:44:58;;;;;;;10.90;2.33;;;10.90;92.10;;;;;;4187493;28;20799;-64
2021/10/24 08:47:00;;;;;;;10.63;2.70;;;11.20;92.00;;;;;;4187535;28;20020;-65
2021/10/24 08:49:02;;;;;;;8.30;1.73;;;11.30;91.60;;;;;;4188143;28;20058;-67
2021/10/24 08:51:03;;;;;;;5.57;2.07;;;11.30;91.90;;;;;;4188612;28;20078;-67
2021/10/24 08:53:11;;;;;;;4.53;1.77;;;11.50;91.60;;;;;;4187096;28;20033;-66
2021/10/24 08:55:13;;;;;;;6.10;1.90;;;11.60;91.30;;;;;;4188255;28;20484;-62
2021/10/24 08:57:23;;;;;;;7.07;1.63;;;11.60;91.10;;;;;;4188028;28;20041;-63
2021/10/24 08:59:25;;;;;;;4.63;2.17;;;11.40;90.80;;;;;;4188290;28;20032;-65
2021/10/24 09:01:27;;;;;;;4.93;2.00;;;11.30;91.40;;;;;;4187941;28;20033;-65
2021/10/24 09:03:28;;;;;;;6.07;2.30;;;11.30;91.30;;;;;;4187986;28;20086;-65
2021/10/24 09:05:40;;;;;;;3.23;1.77;;;11.30;91.00;;;;;;4187735;28;20229;-64
2021/10/24 09:07:41;;;;;;;7.33;1.97;;;11.20;90.60;;;;;;4186413;28;20098;-64
2021/10/24 09:09:43;;;;;;;2.70;1.53;;;10.90;90.90;;;;;;4188011;28;20590;-65
2021/10/24 09:12:00;;;;;;;2.20;1.50;;;10.60;90.90;;;;;;4189028;28;20040;-64
2021/10/24 09:14:01;;;;;;;5.67;1.53;;;10.50;90.60;;;;;;4191074;28;20082;-65
2021/10/24 09:16:07;;;;;;;3.07;1.60;;;10.60;91.10;;;;;;4190704;28;20024;-64
2021/10/24 09:18:09;;;;;;;5.47;2.43;;;10.70;90.80;;;;;;4190351;28;20494;-65
2021/10/24 09:20:10;;;;;;;3.87;1.87;;;10.80;91.00;;;;;;4190146;28;20028;-65
2021/10/24 09:22:16;;;;;;;5.50;1.70;;;10.80;90.90;;;;;;4191037;28;20366;-65
2021/10/24 09:24:17;;;;;;;3.07;1.33;;;10.90;91.00;;;;;;4189539;28;20568;-65
2021/10/24 09:26:22;;;;;;;4.13;1.37;;;11.00;91.00;;;;;;4190697;28;20074;-64
2021/10/24 09:28:26;;;;;;;2.40;1.40;;;11.00;91.00;;;;;;4190435;28;20041;-66
2021/10/24 09:30:36;;;;;;;6.70;2.17;;;10.90;90.90;;;;;;4190532;28;20125;-63
2021/10/24 09:33:14;;;;;;;4.68;1.90;;;11.10;90.60;;;;;;4190353;28;20044;-64
2021/10/24 09:35:15;;;;;;;5.90;2.20;;;10.90;90.30;;;;;;4189951;28;20403;-64
2021/10/24 09:37:18;;;;;;;5.53;1.93;;;10.90;90.80;;;;;;4190759;28;20040;-65
2021/10/24 09:39:24;;;;;;;4.27;1.97;;;11.00;90.50;;;;;;4189025;28;20036;-65
2021/10/24 09:41:32;;;;;;;3.33;1.50;;;10.90;90.40;;;;;;4189335;28;20559;-64
2021/10/24 09:43:34;;;;;;;7.40;2.27;;;11.10;89.60;;;;;;4189269;28;20036;-65
2021/10/24 09:45:36;;;;;;;4.43;1.60;;;11.10;89.40;;;;;;4189654;28;20040;-66
2021/10/24 09:47:38;;;;;;;4.97;2.43;;;11.00;89.90;;;;;;4190063;28;20040;-65
2021/10/24 09:49:42;;;;;;;6.53;1.40;;;10.90;89.60;;;;;;4190311;28;20037;-65
2021/10/24 09:51:44;;;;;;;4.73;1.50;;;10.90;89.40;;;;;;4189928;28;20098;-65
2021/10/24 09:53:47;;;;;;;2.80;1.50;;;11.10;89.40;;;;;;4189746;28;20104;-66
2021/10/24 09:55:53;;;;;;;3.73;1.40;;;11.20;88.70;;;;;;4190282;28;20036;-66
2021/10/24 09:57:54;;;;;;;1.73;1.10;;;11.20;88.60;;;;;;4189921;28;20037;-66
2021/10/24 09:59:56;;;;;;;3.00;1.40;;;11.30;88.20;;;;;;4189975;28;20033;-66
2021/10/24 10:01:57;;;;;;;9.00;1.73;;;11.10;87.60;;;;;;4189389;28;20090;-66
2021/10/24 10:03:58;;;;;;;3.77;1.73;;;11.00;88.90;;;;;;4189899;28;20108;-66
2021/10/24 10:06:00;;;;;;;5.67;1.97;;;11.00;88.90;;;;;;4189783;28;20366;-65
2021/10/24 10:08:01;;;;;;;6.80;1.43;;;11.00;88.10;;;;;;4189893;28;20078;-65
2021/10/24 10:10:02;;;;;;;4.83;1.40;;;10.80;87.70;;;;;;4189568;28;20463;-66
2021/10/24 10:12:04;;;;;;;6.90;1.80;;;10.80;88.50;;;;;;4189379;28;20032;-67
2021/10/24 10:14:35;;;;;;;2.40;1.50;;;10.70;88.80;;;;;;4189896;28;20086;-65
2021/10/24 10:16:43;;;;;;;3.03;1.60;;;10.80;88.70;;;;;;4189564;28;20142;-65
2021/10/24 10:18:56;;;;;;;5.90;2.00;;;10.80;88.80;;;;;;4189672;28;20020;-65
2021/10/24 10:21:02;;;;;;;3.23;1.17;;;10.90;88.10;;;;;;4187459;28;20562;-64
2021/10/24 10:23:06;;;;;;;5.23;0.90;;;11.00;87.60;;;;;;4188454;28;20078;-63
2021/10/24 10:25:09;;;;;;;3.43;1.27;;;11.10;87.30;;;;;;4189882;28;20041;-66
2021/10/24 10:27:39;;;;;;;3.80;1.40;;;11.00;85.30;;;;;;4189785;28;20036;-66
2021/10/24 10:29:51;;;;;;;3.90;1.65;;;11.00;85.70;;;;;;4189350;28;20097;-63
2021/10/24 10:32:15;;;;;;;1.83;1.10;;;11.10;85.80;;;;;;4189521;28;20090;-65
2021/10/24 10:34:16;;;;;;;4.83;1.47;;;11.10;84.70;;;;;;4189556;28;20425;-65
2021/10/24 10:36:17;;;;;;;2.10;1.20;;;11.30;86.30;;;;;;4189420;28;20033;-65
2021/10/24 10:38:45;;;;;;;5.03;1.13;;;11.40;85.80;;;;;;4188652;28;20494;-66
2021/10/24 10:40:56;;;;;;;2.87;1.20;;;11.50;84.20;;;;;;4189066;28;20419;-65
2021/10/24 10:43:20;;;;;;;4.85;1.33;;;11.50;84.50;;;;;;4189479;28;20049;-65